EDT,Max TemperatureF,Mean TemperatureF,Min TemperatureF,Max Dew PointF,MeanDew PointF,Min DewpointF,Max Humidity, Mean Humidity, Min Humidity, Max Sea Level PressureIn, Mean Sea Level PressureIn, Min Sea Level PressureIn, Max VisibilityMiles, Mean VisibilityMiles, Min VisibilityMiles, Max Wind SpeedMPH, Mean Wind SpeedMPH, Max Gust SpeedMPH,PrecipitationIn, CloudCover, Events, WindDirDegrees
2013-7-1,72,62,52,54,47,37,93,60,28,30.19,30.15,30.04,10,10,10,13,3,18,0.00,0,,43
2013-7-2,72,62,52,51,46,38,93,56,31,30.19,30.15,30.10,10,10,10,7,2,,0.00,1,,49
2013-7-3,74,64,53,59,52,48,94,65,39,30.15,30.10,30.05,10,10,10,8,2,,0.00,2,,155
2013-7-4,72,65,58,64,62,58,100,86,70,30.08,30.05,30.02,10,8,0,14,4,21,0.00,3,Fog,200
2013-7-5,79,68,57,64,61,57,100,79,55,30.07,30.04,30.00,10,8,2,9,3,,0.00,1,,181
2013-7-6,84,72,59,64,62,59,100,74,44,30.03,30.01,29.97,10,9,3,10,3,16,0.00,0,,201
2013-7-7,79,68,58,68,64,58,100,84,61,29.99,29.95,29.92,10,7,1,9,2,,0.00,3,Rain,208
2013-7-8,68,66,64,67,65,63,100,97,93,30.01,29.98,29.95,10,6,3,8,3,,0.00,8,Rain,91
2013-7-9,74,69,64,69,67,65,100,93,80,30.00,29.93,29.76,10,6,1,8,2,,0.00,7,Rain,142
2013-7-10,69,64,60,69,61,54,100,84,66,29.91,29.75,29.62,10,9,3,16,8,28,0.00,5,Rain,279
2013-7-11,71,62,53,56,54,51,100,75,52,30.10,30.04,29.90,10,10,10,10,5,,0.00,0,,311
2013-7-12,76,62,48,60,53,49,100,72,40,30.20,30.16,30.10,10,9,1,10,3,,0.00,0,,168
2013-7-13,81,69,57,61,58,54,94,70,41,30.22,30.19,30.15,10,10,10,12,5,,0.00,0,,156
2013-7-14,84,71,58,64,60,56,99,68,40,30.27,30.25,30.21,10,10,10,8,5,,0.00,0,,166
2013-7-15,87,74,60,67,64,60,100,74,45,30.31,30.27,30.25,10,9,2,9,2,,0.00,0,,206
2013-7-16,90,76,62,70,67,63,100,76,45,30.28,30.24,30.18,10,9,5,8,2,,0.00,1,,204
2013-7-17,90,79,67,74,71,67,100,80,48,30.20,30.15,30.09,10,10,4,13,3,23,0.00,2,Rain,258
2013-7-18,77,72,67,72,70,67,100,92,73,30.10,29.98,29.75,10,8,2,14,3,21,0.00,4,Rain,206
2013-7-19,79,71,60,72,66,58,100,89,63,29.78,29.68,29.60,10,9,1,14,6,23,0.00,4,Rain,238
2013-7-20,69,62,55,60,53,46,100,72,46,29.99,29.84,29.72,10,10,7,13,4,22,0.00,1,,300
2013-7-21,69,58,48,54,50,46,100,73,45,30.07,30.02,29.98,10,10,10,10,2,16,0.00,1,,151
2013-7-22,74,66,59,66,61,54,98,81,72,29.98,29.83,29.63,10,10,7,13,6,20,0.00,3,Rain,147
2013-7-23,70,62,54,66,54,47,98,75,59,29.92,29.73,29.59,10,10,10,17,8,25,0.00,5,Rain,310
2013-7-24,69,58,46,52,48,44,97,68,46,30.05,30.01,29.93,10,10,10,9,4,,0.00,0,,282
2013-7-25,71,60,49,59,54,49,100,80,51,30.09,30.05,30.01,10,10,10,13,3,20,0.00,1,,153
2013-7-26,70,64,59,65,60,58,100,91,75,30.02,29.94,29.85,10,9,2,14,7,23,0.00,7,Rain,168
2013-7-27,68,62,55,61,57,52,100,89,69,29.85,29.80,29.74,10,10,5,8,4,,0.00,7,Rain,313
2013-7-28,65,58,51,55,52,50,100,84,61,29.89,29.78,29.70,10,10,10,9,6,17,0.00,6,Rain,236
2013-7-29,67,59,51,59,55,51,100,86,66,30.15,30.01,29.89,10,10,2,10,3,17,0.00,4,Rain,296
2013-7-30,72,61,50,61,56,50,100,81,53,30.21,30.16,30.12,10,10,7,10,2,17,0.00,2,,233
2013-7-31,73,64,54,63,59,55,100,85,60,30.12,30.00,29.87,10,10,1,9,3,,0.00,4,Rain,175